Main page
METAR-TAF:

METAR-TAF

Airports :

Mthatha Airport

Mthatha, South Africa

latitude: 31-32-47S, longitude: 028-40-31E, elevation: 740 m

Current weather observation

The report was made 57 minutes ago, at 05:00 UTC
Wind 3 kt from the West
Temperature 5°C
Humidity 75%
Pressure 1029 hPa
Visibility 10 km or more
no clouds below 1500 m and no cumulonimbus

METAR: FAUT 230500Z 26003KT CAVOK 05/01 Q1029

Time: 07:57 (05:57 UTC)

Forecast

The report was made 2 hours and 57 minutes ago, at 03:00 UTC
Forecast valid from 23 at 04 UTC to 23 at 15 UTC
Wind 4 kt from the Northwest
Visibility 10 km or more
no clouds below 1500 m and no cumulonimbus
Becoming
from 23 at 10 UTC to 23 at 12 UTC
Wind 2 kt from variable directions

TAF: FAUT 230300Z 2304/2315 31004KT CAVOK BECMG 2310/2312 VRB02KT TX26/2312Z TN04/2304Z

Weather observations and forecasts of more than 4000 airports (METAR and TAF reports).

The available stations are represented by yellow and red dots on the map.

Hover mouse over dot to see the name of the station.

Then click to see weather observations and forecasts.

To change the map : click on the green buttons with a black cross to zoom in, on the green button with a dash to zoom out, or on the green arrows for adjacent maps.


METAR-TAF: